South Corinth, Vermont
Current Conditions -  °F | °C
As of 8:51 AM on Saturday 22 Nov 2014 (Local Time) from KMPV Reporting Station
Clear Clear  
Wind Chill: 11°   Ceiling: Unl
Heat Index: 22°   Visibility: 10mi
Dew Point: 13°   Wind: 10mph
Humidity: 68%   Direction: 180°S
Pressure: 30.22"   Gusts: NA
Location:  44.0089°N, 72.1564°W
Report Text: KMPV 221351Z AUTO 18009KT 10SM CLR M06/M11 A3022 RMK AO2 SLP255 T10561106
Loading
Personal Weather Stations






























Interactive Weather Map New forecast layout! Learn more

10-Day Weather Forecast

Advertisements
Track Severe Weather on mobile